sensor_id;sensor_type;location;lat;lon;timestamp;P1;durP1;ratioP1;P2;durP2;ratioP2
51732;SDS011;39139;53.144;6.244;2024-01-11T00:01:36;33.22;;;16.85;;
51732;SDS011;39139;53.144;6.244;2024-01-11T00:04:01;37.08;;;17.77;;
51732;SDS011;39139;53.144;6.244;2024-01-11T00:06:27;34.65;;;19.02;;
51732;SDS011;39139;53.144;6.244;2024-01-11T00:08:52;40.80;;;19.20;;
51732;SDS011;39139;53.144;6.244;2024-01-11T00:11:18;37.63;;;19.70;;
51732;SDS011;39139;53.144;6.244;2024-01-11T00:13:44;37.60;;;19.13;;
51732;SDS011;39139;53.144;6.244;2024-01-11T00:16:09;39.92;;;19.15;;
51732;SDS011;39139;53.144;6.244;2024-01-11T00:18:35;41.70;;;19.40;;
51732;SDS011;39139;53.144;6.244;2024-01-11T00:21:01;38.70;;;18.58;;
51732;SDS011;39139;53.144;6.244;2024-01-11T00:23:26;40.33;;;20.05;;
51732;SDS011;39139;53.144;6.244;2024-01-11T00:25:52;39.42;;;19.50;;
51732;SDS011;39139;53.144;6.244;2024-01-11T00:28:18;40.67;;;20.60;;
51732;SDS011;39139;53.144;6.244;2024-01-11T00:30:43;36.67;;;19.00;;
51732;SDS011;39139;53.144;6.244;2024-01-11T00:33:09;37.25;;;18.80;;
51732;SDS011;39139;53.144;6.244;2024-01-11T00:35:35;36.50;;;18.42;;
51732;SDS011;39139;53.144;6.244;2024-01-11T00:38:00;41.60;;;19.67;;
51732;SDS011;39139;53.144;6.244;2024-01-11T00:40:26;36.38;;;18.95;;
51732;SDS011;39139;53.144;6.244;2024-01-11T00:42:51;38.00;;;19.98;;
51732;SDS011;39139;53.144;6.244;2024-01-11T00:45:17;38.80;;;20.75;;
51732;SDS011;39139;53.144;6.244;2024-01-11T00:47:43;47.05;;;21.50;;
51732;SDS011;39139;53.144;6.244;2024-01-11T00:50:09;46.95;;;21.80;;
51732;SDS011;39139;53.144;6.244;2024-01-11T00:52:34;45.80;;;21.15;;
51732;SDS011;39139;53.144;6.244;2024-01-11T00:55:00;43.97;;;20.92;;
51732;SDS011;39139;53.144;6.244;2024-01-11T00:57:25;43.10;;;21.48;;
51732;SDS011;39139;53.144;6.244;2024-01-11T00:59:51;46.85;;;20.70;;
51732;SDS011;39139;53.144;6.244;2024-01-11T01:02:17;44.00;;;21.17;;
51732;SDS011;39139;53.144;6.244;2024-01-11T01:04:45;42.88;;;21.55;;
51732;SDS011;39139;53.144;6.244;2024-01-11T01:07:11;44.92;;;21.58;;
51732;SDS011;39139;53.144;6.244;2024-01-11T01:09:36;49.65;;;22.88;;
51732;SDS011;39139;53.144;6.244;2024-01-11T01:12:02;51.38;;;22.60;;
51732;SDS011;39139;53.144;6.244;2024-01-11T01:14:28;50.53;;;22.45;;
51732;SDS011;39139;53.144;6.244;2024-01-11T01:16:54;48.47;;;22.05;;
51732;SDS011;39139;53.144;6.244;2024-01-11T01:19:19;48.90;;;22.83;;
51732;SDS011;39139;53.144;6.244;2024-01-11T01:21:45;53.60;;;24.58;;
51732;SDS011;39139;53.144;6.244;2024-01-11T01:24:10;54.67;;;24.95;;
51732;SDS011;39139;53.144;6.244;2024-01-11T01:26:36;49.38;;;23.35;;
51732;SDS011;39139;53.144;6.244;2024-01-11T01:29:01;53.88;;;24.92;;
51732;SDS011;39139;53.144;6.244;2024-01-11T01:31:27;50.88;;;23.02;;
51732;SDS011;39139;53.144;6.244;2024-01-11T01:33:53;49.42;;;23.23;;
51732;SDS011;39139;53.144;6.244;2024-01-11T01:36:19;47.08;;;23.27;;
51732;SDS011;39139;53.144;6.244;2024-01-11T01:38:44;42.13;;;20.67;;
51732;SDS011;39139;53.144;6.244;2024-01-11T01:41:10;46.92;;;22.88;;
51732;SDS011;39139;53.144;6.244;2024-01-11T01:43:36;49.10;;;22.80;;
51732;SDS011;39139;53.144;6.244;2024-01-11T01:46:01;45.60;;;21.60;;
51732;SDS011;39139;53.144;6.244;2024-01-11T01:48:28;46.10;;;21.10;;
51732;SDS011;39139;53.144;6.244;2024-01-11T01:50:54;46.00;;;22.35;;
51732;SDS011;39139;53.144;6.244;2024-01-11T01:53:21;49.17;;;22.80;;
51732;SDS011;39139;53.144;6.244;2024-01-11T01:55:48;47.40;;;23.42;;
51732;SDS011;39139;53.144;6.244;2024-01-11T01:58:16;49.53;;;23.73;;
51732;SDS011;39139;53.144;6.244;2024-01-11T02:00:43;55.05;;;24.23;;
51732;SDS011;39139;53.144;6.244;2024-01-11T02:03:10;52.75;;;25.05;;
51732;SDS011;39139;53.144;6.244;2024-01-11T02:05:37;46.65;;;22.38;;
51732;SDS011;39139;53.144;6.244;2024-01-11T02:08:03;49.42;;;22.42;;
51732;SDS011;39139;53.144;6.244;2024-01-11T02:10:33;48.03;;;22.75;;
51732;SDS011;39139;53.144;6.244;2024-01-11T02:13:00;55.00;;;24.13;;
51732;SDS011;39139;53.144;6.244;2024-01-11T02:15:26;51.08;;;23.20;;
51732;SDS011;39139;53.144;6.244;2024-01-11T02:17:51;53.40;;;24.05;;
51732;SDS011;39139;53.144;6.244;2024-01-11T02:20:17;53.75;;;23.38;;
51732;SDS011;39139;53.144;6.244;2024-01-11T02:22:45;51.88;;;24.27;;
51732;SDS011;39139;53.144;6.244;2024-01-11T02:25:14;47.45;;;22.17;;
51732;SDS011;39139;53.144;6.244;2024-01-11T02:27:49;49.85;;;23.55;;
51732;SDS011;39139;53.144;6.244;2024-01-11T02:30:15;45.33;;;22.02;;
51732;SDS011;39139;53.144;6.244;2024-01-11T02:32:46;50.47;;;23.15;;
51732;SDS011;39139;53.144;6.244;2024-01-11T02:35:17;58.20;;;24.92;;
51732;SDS011;39139;53.144;6.244;2024-01-11T02:37:44;53.42;;;24.48;;
51732;SDS011;39139;53.144;6.244;2024-01-11T02:40:10;49.03;;;24.83;;
51732;SDS011;39139;53.144;6.244;2024-01-11T02:42:38;49.97;;;24.42;;
51732;SDS011;39139;53.144;6.244;2024-01-11T02:45:04;51.08;;;23.83;;
51732;SDS011;39139;53.144;6.244;2024-01-11T02:47:30;48.00;;;23.50;;
51732;SDS011;39139;53.144;6.244;2024-01-11T02:49:56;53.22;;;23.73;;
51732;SDS011;39139;53.144;6.244;2024-01-11T02:52:25;52.03;;;24.25;;
51732;SDS011;39139;53.144;6.244;2024-01-11T02:54:50;49.80;;;23.42;;
51732;SDS011;39139;53.144;6.244;2024-01-11T02:57:16;47.40;;;22.20;;
51732;SDS011;39139;53.144;6.244;2024-01-11T02:59:42;57.50;;;23.77;;
51732;SDS011;39139;53.144;6.244;2024-01-11T03:02:08;55.85;;;25.08;;
51732;SDS011;39139;53.144;6.244;2024-01-11T03:04:34;53.20;;;24.35;;
51732;SDS011;39139;53.144;6.244;2024-01-11T03:07:00;51.10;;;23.92;;
51732;SDS011;39139;53.144;6.244;2024-01-11T03:09:25;54.58;;;22.98;;
51732;SDS011;39139;53.144;6.244;2024-01-11T03:11:51;54.20;;;24.73;;
51732;SDS011;39139;53.144;6.244;2024-01-11T03:14:17;54.08;;;24.30;;
51732;SDS011;39139;53.144;6.244;2024-01-11T03:16:42;52.10;;;24.15;;
51732;SDS011;39139;53.144;6.244;2024-01-11T03:19:08;47.97;;;23.02;;
51732;SDS011;39139;53.144;6.244;2024-01-11T03:21:33;48.28;;;24.38;;
51732;SDS011;39139;53.144;6.244;2024-01-11T03:23:59;55.38;;;24.88;;
51732;SDS011;39139;53.144;6.244;2024-01-11T03:26:25;54.60;;;25.33;;
51732;SDS011;39139;53.144;6.244;2024-01-11T03:28:50;55.05;;;24.20;;
51732;SDS011;39139;53.144;6.244;2024-01-11T03:31:16;57.50;;;25.08;;
51732;SDS011;39139;53.144;6.244;2024-01-11T03:33:41;59.92;;;24.90;;
51732;SDS011;39139;53.144;6.244;2024-01-11T03:36:10;58.28;;;24.77;;
51732;SDS011;39139;53.144;6.244;2024-01-11T03:38:37;48.83;;;23.02;;
51732;SDS011;39139;53.144;6.244;2024-01-11T03:41:06;57.55;;;26.40;;
51732;SDS011;39139;53.144;6.244;2024-01-11T03:43:33;51.08;;;21.58;;
51732;SDS011;39139;53.144;6.244;2024-01-11T03:45:59;50.15;;;23.02;;
51732;SDS011;39139;53.144;6.244;2024-01-11T03:48:24;54.35;;;23.58;;
51732;SDS011;39139;53.144;6.244;2024-01-11T03:50:50;55.60;;;25.17;;
51732;SDS011;39139;53.144;6.244;2024-01-11T03:53:15;55.25;;;24.30;;
51732;SDS011;39139;53.144;6.244;2024-01-11T03:55:41;57.63;;;25.73;;
51732;SDS011;39139;53.144;6.244;2024-01-11T03:58:07;56.78;;;24.20;;
51732;SDS011;39139;53.144;6.244;2024-01-11T04:00:32;58.40;;;26.05;;
51732;SDS011;39139;53.144;6.244;2024-01-11T04:02:58;52.28;;;23.75;;
51732;SDS011;39139;53.144;6.244;2024-01-11T04:05:24;54.05;;;24.15;;
51732;SDS011;39139;53.144;6.244;2024-01-11T04:07:50;56.55;;;23.98;;
51732;SDS011;39139;53.144;6.244;2024-01-11T04:10:17;49.03;;;23.98;;
51732;SDS011;39139;53.144;6.244;2024-01-11T04:12:42;59.85;;;26.17;;
51732;SDS011;39139;53.144;6.244;2024-01-11T04:15:08;58.20;;;24.63;;
51732;SDS011;39139;53.144;6.244;2024-01-11T04:17:36;57.08;;;24.48;;
51732;SDS011;39139;53.144;6.244;2024-01-11T04:20:03;53.05;;;24.80;;
51732;SDS011;39139;53.144;6.244;2024-01-11T04:22:30;55.40;;;25.15;;
51732;SDS011;39139;53.144;6.244;2024-01-11T04:24:55;61.95;;;25.13;;
51732;SDS011;39139;53.144;6.244;2024-01-11T04:27:21;59.00;;;25.52;;
51732;SDS011;39139;53.144;6.244;2024-01-11T04:29:46;55.67;;;24.80;;
51732;SDS011;39139;53.144;6.244;2024-01-11T04:32:12;55.67;;;25.30;;
51732;SDS011;39139;53.144;6.244;2024-01-11T04:34:38;50.90;;;25.10;;
51732;SDS011;39139;53.144;6.244;2024-01-11T04:37:03;58.10;;;26.70;;
51732;SDS011;39139;53.144;6.244;2024-01-11T04:39:29;54.15;;;24.08;;
51732;SDS011;39139;53.144;6.244;2024-01-11T04:41:56;55.13;;;26.33;;
51732;SDS011;39139;53.144;6.244;2024-01-11T04:44:21;56.88;;;27.23;;
51732;SDS011;39139;53.144;6.244;2024-01-11T04:46:47;58.55;;;25.65;;
51732;SDS011;39139;53.144;6.244;2024-01-11T04:49:12;63.60;;;25.33;;
51732;SDS011;39139;53.144;6.244;2024-01-11T04:51:38;60.10;;;26.63;;
51732;SDS011;39139;53.144;6.244;2024-01-11T04:54:03;62.67;;;28.42;;
51732;SDS011;39139;53.144;6.244;2024-01-11T04:56:29;61.28;;;28.58;;
51732;SDS011;39139;53.144;6.244;2024-01-11T04:58:55;64.18;;;27.20;;
51732;SDS011;39139;53.144;6.244;2024-01-11T05:01:20;62.00;;;27.10;;
51732;SDS011;39139;53.144;6.244;2024-01-11T05:03:47;64.82;;;28.95;;
51732;SDS011;39139;53.144;6.244;2024-01-11T05:06:17;57.28;;;26.50;;
51732;SDS011;39139;53.144;6.244;2024-01-11T05:08:44;61.22;;;26.98;;
51732;SDS011;39139;53.144;6.244;2024-01-11T05:13:49;64.18;;;28.80;;
51732;SDS011;39139;53.144;6.244;2024-01-11T05:16:22;60.40;;;28.48;;
51732;SDS011;39139;53.144;6.244;2024-01-11T05:18:49;67.43;;;28.75;;
51732;SDS011;39139;53.144;6.244;2024-01-11T05:21:16;72.10;;;29.95;;
51732;SDS011;39139;53.144;6.244;2024-01-11T05:23:42;65.93;;;28.02;;
51732;SDS011;39139;53.144;6.244;2024-01-11T05:26:08;69.78;;;30.90;;
51732;SDS011;39139;53.144;6.244;2024-01-11T05:28:34;63.78;;;29.92;;
51732;SDS011;39139;53.144;6.244;2024-01-11T05:31:00;59.95;;;29.17;;
51732;SDS011;39139;53.144;6.244;2024-01-11T05:33:25;67.55;;;29.13;;
51732;SDS011;39139;53.144;6.244;2024-01-11T05:35:51;69.65;;;31.17;;
51732;SDS011;39139;53.144;6.244;2024-01-11T05:38:18;62.53;;;29.05;;
51732;SDS011;39139;53.144;6.244;2024-01-11T05:40:44;64.25;;;30.17;;
51732;SDS011;39139;53.144;6.244;2024-01-11T05:43:10;65.03;;;30.40;;
51732;SDS011;39139;53.144;6.244;2024-01-11T05:45:36;65.10;;;29.35;;
51732;SDS011;39139;53.144;6.244;2024-01-11T05:48:01;61.90;;;28.25;;
51732;SDS011;39139;53.144;6.244;2024-01-11T05:50:27;63.20;;;29.05;;
51732;SDS011;39139;53.144;6.244;2024-01-11T05:52:53;57.28;;;28.70;;
51732;SDS011;39139;53.144;6.244;2024-01-11T05:55:19;66.60;;;29.27;;
51732;SDS011;39139;53.144;6.244;2024-01-11T05:57:45;73.72;;;30.73;;
51732;SDS011;39139;53.144;6.244;2024-01-11T06:00:11;61.78;;;28.83;;
51732;SDS011;39139;53.144;6.244;2024-01-11T06:02:37;61.28;;;30.38;;
51732;SDS011;39139;53.144;6.244;2024-01-11T06:05:02;69.05;;;31.23;;
51732;SDS011;39139;53.144;6.244;2024-01-11T06:07:28;70.55;;;31.85;;
51732;SDS011;39139;53.144;6.244;2024-01-11T06:09:54;67.68;;;29.80;;
51732;SDS011;39139;53.144;6.244;2024-01-11T06:12:20;61.42;;;29.90;;
51732;SDS011;39139;53.144;6.244;2024-01-11T06:14:45;67.85;;;29.85;;
51732;SDS011;39139;53.144;6.244;2024-01-11T06:17:11;61.42;;;29.52;;
51732;SDS011;39139;53.144;6.244;2024-01-11T06:19:37;66.47;;;29.08;;
51732;SDS011;39139;53.144;6.244;2024-01-11T06:22:03;62.00;;;29.65;;
51732;SDS011;39139;53.144;6.244;2024-01-11T06:24:30;63.63;;;31.35;;
51732;SDS011;39139;53.144;6.244;2024-01-11T06:26:55;67.65;;;30.80;;
51732;SDS011;39139;53.144;6.244;2024-01-11T06:29:21;70.07;;;31.02;;
51732;SDS011;39139;53.144;6.244;2024-01-11T06:31:47;65.25;;;31.27;;
51732;SDS011;39139;53.144;6.244;2024-01-11T06:34:12;68.60;;;30.65;;
51732;SDS011;39139;53.144;6.244;2024-01-11T06:36:38;65.68;;;30.33;;
51732;SDS011;39139;53.144;6.244;2024-01-11T06:39:03;68.97;;;29.92;;
51732;SDS011;39139;53.144;6.244;2024-01-11T06:41:29;65.18;;;30.73;;
51732;SDS011;39139;53.144;6.244;2024-01-11T06:43:55;65.47;;;31.65;;
51732;SDS011;39139;53.144;6.244;2024-01-11T06:46:20;63.65;;;30.73;;
51732;SDS011;39139;53.144;6.244;2024-01-11T06:48:47;65.85;;;31.27;;
51732;SDS011;39139;53.144;6.244;2024-01-11T06:51:14;63.28;;;30.45;;
51732;SDS011;39139;53.144;6.244;2024-01-11T06:53:41;68.03;;;31.83;;
51732;SDS011;39139;53.144;6.244;2024-01-11T06:56:14;66.22;;;30.75;;
51732;SDS011;39139;53.144;6.244;2024-01-11T06:58:43;63.72;;;30.30;;
51732;SDS011;39139;53.144;6.244;2024-01-11T07:01:10;64.82;;;30.83;;
51732;SDS011;39139;53.144;6.244;2024-01-11T07:03:36;66.07;;;29.83;;
51732;SDS011;39139;53.144;6.244;2024-01-11T07:06:02;59.05;;;29.50;;
51732;SDS011;39139;53.144;6.244;2024-01-11T07:08:28;62.78;;;31.38;;
51732;SDS011;39139;53.144;6.244;2024-01-11T07:10:54;62.17;;;30.25;;
51732;SDS011;39139;53.144;6.244;2024-01-11T07:13:20;60.90;;;29.92;;
51732;SDS011;39139;53.144;6.244;2024-01-11T07:15:45;60.60;;;28.58;;
51732;SDS011;39139;53.144;6.244;2024-01-11T07:18:13;59.55;;;28.92;;
51732;SDS011;39139;53.144;6.244;2024-01-11T07:20:38;62.50;;;29.83;;
51732;SDS011;39139;53.144;6.244;2024-01-11T07:23:04;54.75;;;27.60;;
51732;SDS011;39139;53.144;6.244;2024-01-11T07:25:29;64.78;;;30.27;;
51732;SDS011;39139;53.144;6.244;2024-01-11T07:27:55;65.45;;;29.23;;
51732;SDS011;39139;53.144;6.244;2024-01-11T07:30:21;61.13;;;29.17;;
51732;SDS011;39139;53.144;6.244;2024-01-11T07:32:46;56.45;;;27.35;;
51732;SDS011;39139;53.144;6.244;2024-01-11T07:35:12;63.03;;;28.85;;
51732;SDS011;39139;53.144;6.244;2024-01-11T07:37:38;59.67;;;30.92;;
51732;SDS011;39139;53.144;6.244;2024-01-11T07:40:07;64.45;;;31.48;;
51732;SDS011;39139;53.144;6.244;2024-01-11T07:42:38;61.45;;;30.35;;
51732;SDS011;39139;53.144;6.244;2024-01-11T07:45:04;60.58;;;28.95;;
51732;SDS011;39139;53.144;6.244;2024-01-11T07:47:35;67.10;;;31.55;;
51732;SDS011;39139;53.144;6.244;2024-01-11T07:50:02;57.67;;;28.30;;
51732;SDS011;39139;53.144;6.244;2024-01-11T07:52:29;62.88;;;29.73;;
51732;SDS011;39139;53.144;6.244;2024-01-11T07:54:54;71.63;;;32.88;;
51732;SDS011;39139;53.144;6.244;2024-01-11T07:57:20;65.80;;;31.08;;
51732;SDS011;39139;53.144;6.244;2024-01-11T07:59:46;62.03;;;29.40;;
51732;SDS011;39139;53.144;6.244;2024-01-11T08:02:12;63.28;;;31.15;;
51732;SDS011;39139;53.144;6.244;2024-01-11T08:04:37;61.70;;;30.67;;
51732;SDS011;39139;53.144;6.244;2024-01-11T08:07:04;59.60;;;27.95;;
51732;SDS011;39139;53.144;6.244;2024-01-11T08:09:30;64.45;;;32.13;;
51732;SDS011;39139;53.144;6.244;2024-01-11T08:11:56;63.40;;;29.23;;
51732;SDS011;39139;53.144;6.244;2024-01-11T08:14:22;59.65;;;30.27;;
51732;SDS011;39139;53.144;6.244;2024-01-11T08:16:47;68.22;;;31.27;;
51732;SDS011;39139;53.144;6.244;2024-01-11T08:19:13;59.22;;;29.42;;
51732;SDS011;39139;53.144;6.244;2024-01-11T08:21:39;62.15;;;31.83;;
51732;SDS011;39139;53.144;6.244;2024-01-11T08:24:06;60.65;;;29.17;;
51732;SDS011;39139;53.144;6.244;2024-01-11T08:26:32;57.13;;;29.00;;
51732;SDS011;39139;53.144;6.244;2024-01-11T08:28:59;64.43;;;31.85;;
51732;SDS011;39139;53.144;6.244;2024-01-11T08:31:24;63.13;;;31.73;;
51732;SDS011;39139;53.144;6.244;2024-01-11T08:33:50;60.53;;;29.92;;
51732;SDS011;39139;53.144;6.244;2024-01-11T08:36:16;58.65;;;28.52;;
51732;SDS011;39139;53.144;6.244;2024-01-11T08:38:41;59.13;;;29.42;;
51732;SDS011;39139;53.144;6.244;2024-01-11T08:41:07;51.97;;;28.08;;
51732;SDS011;39139;53.144;6.244;2024-01-11T08:43:33;56.03;;;29.60;;
51732;SDS011;39139;53.144;6.244;2024-01-11T08:45:59;54.47;;;28.65;;
51732;SDS011;39139;53.144;6.244;2024-01-11T08:48:24;61.83;;;31.45;;
51732;SDS011;39139;53.144;6.244;2024-01-11T08:50:50;58.15;;;30.08;;
51732;SDS011;39139;53.144;6.244;2024-01-11T08:53:16;59.65;;;30.58;;
51732;SDS011;39139;53.144;6.244;2024-01-11T08:55:42;57.50;;;30.02;;
51732;SDS011;39139;53.144;6.244;2024-01-11T08:58:08;63.90;;;31.55;;
51732;SDS011;39139;53.144;6.244;2024-01-11T09:00:34;55.47;;;29.50;;
51732;SDS011;39139;53.144;6.244;2024-01-11T09:02:59;65.35;;;31.00;;
51732;SDS011;39139;53.144;6.244;2024-01-11T09:05:25;59.97;;;31.13;;
51732;SDS011;39139;53.144;6.244;2024-01-11T09:07:51;58.28;;;29.23;;
51732;SDS011;39139;53.144;6.244;2024-01-11T09:10:17;59.28;;;31.98;;
51732;SDS011;39139;53.144;6.244;2024-01-11T09:12:42;60.30;;;32.67;;
51732;SDS011;39139;53.144;6.244;2024-01-11T09:15:08;66.50;;;35.45;;
51732;SDS011;39139;53.144;6.244;2024-01-11T09:17:35;63.42;;;32.45;;
51732;SDS011;39139;53.144;6.244;2024-01-11T09:20:00;65.93;;;34.88;;
51732;SDS011;39139;53.144;6.244;2024-01-11T09:22:26;59.55;;;29.20;;
51732;SDS011;39139;53.144;6.244;2024-01-11T09:24:52;54.50;;;28.88;;
51732;SDS011;39139;53.144;6.244;2024-01-11T09:27:18;61.33;;;31.30;;
51732;SDS011;39139;53.144;6.244;2024-01-11T09:29:44;56.03;;;29.38;;
51732;SDS011;39139;53.144;6.244;2024-01-11T09:32:10;54.90;;;30.60;;
51732;SDS011;39139;53.144;6.244;2024-01-11T09:34:35;58.47;;;32.28;;
51732;SDS011;39139;53.144;6.244;2024-01-11T09:37:01;67.10;;;33.17;;
51732;SDS011;39139;53.144;6.244;2024-01-11T09:39:26;63.05;;;31.85;;
51732;SDS011;39139;53.144;6.244;2024-01-11T09:41:55;66.75;;;35.65;;
51732;SDS011;39139;53.144;6.244;2024-01-11T09:44:31;62.40;;;35.95;;
51732;SDS011;39139;53.144;6.244;2024-01-11T09:46:58;70.05;;;36.17;;
51732;SDS011;39139;53.144;6.244;2024-01-11T09:49:26;62.85;;;34.25;;
51732;SDS011;39139;53.144;6.244;2024-01-11T09:51:55;63.70;;;33.20;;
51732;SDS011;39139;53.144;6.244;2024-01-11T09:54:22;66.28;;;37.28;;
51732;SDS011;39139;53.144;6.244;2024-01-11T09:56:50;69.65;;;37.22;;
51732;SDS011;39139;53.144;6.244;2024-01-11T09:59:20;82.75;;;42.47;;
51732;SDS011;39139;53.144;6.244;2024-01-11T10:01:47;101.32;;;50.60;;
51732;SDS011;39139;53.144;6.244;2024-01-11T10:04:14;120.78;;;56.00;;
51732;SDS011;39139;53.144;6.244;2024-01-11T10:06:41;145.30;;;66.28;;
51732;SDS011;39139;53.144;6.244;2024-01-11T10:09:07;124.80;;;60.85;;
51732;SDS011;39139;53.144;6.244;2024-01-11T10:11:33;108.97;;;51.28;;
51732;SDS011;39139;53.144;6.244;2024-01-11T10:14:02;100.60;;;48.25;;
51732;SDS011;39139;53.144;6.244;2024-01-11T10:16:30;75.95;;;40.10;;
51732;SDS011;39139;53.144;6.244;2024-01-11T10:18:56;68.35;;;37.47;;
51732;SDS011;39139;53.144;6.244;2024-01-11T10:21:22;73.22;;;42.10;;
51732;SDS011;39139;53.144;6.244;2024-01-11T10:23:49;71.35;;;37.90;;
51732;SDS011;39139;53.144;6.244;2024-01-11T10:26:15;70.13;;;37.97;;
51732;SDS011;39139;53.144;6.244;2024-01-11T10:28:45;59.70;;;35.03;;
51732;SDS011;39139;53.144;6.244;2024-01-11T10:31:11;62.85;;;35.85;;
51732;SDS011;39139;53.144;6.244;2024-01-11T10:33:40;55.97;;;30.58;;
51732;SDS011;39139;53.144;6.244;2024-01-11T10:36:06;62.38;;;36.25;;
51732;SDS011;39139;53.144;6.244;2024-01-11T10:38:38;60.28;;;33.70;;
51732;SDS011;39139;53.144;6.244;2024-01-11T10:41:05;61.92;;;33.40;;
51732;SDS011;39139;53.144;6.244;2024-01-11T10:43:36;62.72;;;34.90;;
51732;SDS011;39139;53.144;6.244;2024-01-11T10:46:03;62.90;;;35.80;;
51732;SDS011;39139;53.144;6.244;2024-01-11T10:48:31;66.13;;;34.73;;
51732;SDS011;39139;53.144;6.244;2024-01-11T10:51:07;59.35;;;31.85;;
51732;SDS011;39139;53.144;6.244;2024-01-11T10:53:41;71.07;;;38.40;;
51732;SDS011;39139;53.144;6.244;2024-01-11T10:56:15;63.58;;;36.72;;
51732;SDS011;39139;53.144;6.244;2024-01-11T10:58:42;67.60;;;39.63;;
51732;SDS011;39139;53.144;6.244;2024-01-11T11:01:10;64.85;;;37.65;;
51732;SDS011;39139;53.144;6.244;2024-01-11T11:03:36;56.00;;;33.45;;
51732;SDS011;39139;53.144;6.244;2024-01-11T11:06:04;61.28;;;36.15;;
51732;SDS011;39139;53.144;6.244;2024-01-11T11:08:34;64.53;;;37.88;;
51732;SDS011;39139;53.144;6.244;2024-01-11T11:11:02;64.13;;;37.85;;
51732;SDS011;39139;53.144;6.244;2024-01-11T11:13:31;63.30;;;35.47;;
51732;SDS011;39139;53.144;6.244;2024-01-11T11:15:57;61.70;;;34.78;;
51732;SDS011;39139;53.144;6.244;2024-01-11T11:18:24;65.10;;;39.47;;
51732;SDS011;39139;53.144;6.244;2024-01-11T11:20:50;55.50;;;31.55;;
51732;SDS011;39139;53.144;6.244;2024-01-11T11:23:17;59.65;;;34.38;;
51732;SDS011;39139;53.144;6.244;2024-01-11T11:25:47;63.03;;;35.97;;
51732;SDS011;39139;53.144;6.244;2024-01-11T11:28:15;61.85;;;35.42;;
51732;SDS011;39139;53.144;6.244;2024-01-11T11:30:43;63.55;;;36.17;;
51732;SDS011;39139;53.144;6.244;2024-01-11T11:33:19;62.05;;;36.90;;
51732;SDS011;39139;53.144;6.244;2024-01-11T11:35:46;66.35;;;38.45;;
51732;SDS011;39139;53.144;6.244;2024-01-11T11:38:23;59.00;;;34.53;;
51732;SDS011;39139;53.144;6.244;2024-01-11T11:40:56;64.45;;;34.30;;
51732;SDS011;39139;53.144;6.244;2024-01-11T11:43:26;53.05;;;31.48;;
51732;SDS011;39139;53.144;6.244;2024-01-11T11:45:52;54.33;;;32.30;;
51732;SDS011;39139;53.144;6.244;2024-01-11T11:51:15;54.67;;;33.88;;
51732;SDS011;39139;53.144;6.244;2024-01-11T11:53:43;60.63;;;35.35;;
51732;SDS011;39139;53.144;6.244;2024-01-11T11:56:10;53.88;;;32.88;;
51732;SDS011;39139;53.144;6.244;2024-01-11T11:58:37;56.53;;;34.20;;
51732;SDS011;39139;53.144;6.244;2024-01-11T12:01:04;56.38;;;34.65;;
51732;SDS011;39139;53.144;6.244;2024-01-11T12:03:33;54.55;;;32.03;;
51732;SDS011;39139;53.144;6.244;2024-01-11T12:06:03;57.42;;;33.80;;
51732;SDS011;39139;53.144;6.244;2024-01-11T12:08:31;51.17;;;31.77;;
51732;SDS011;39139;53.144;6.244;2024-01-11T12:10:57;51.08;;;31.40;;
51732;SDS011;39139;53.144;6.244;2024-01-11T12:13:23;51.50;;;30.77;;
51732;SDS011;39139;53.144;6.244;2024-01-11T12:15:50;54.67;;;31.77;;
51732;SDS011;39139;53.144;6.244;2024-01-11T12:18:16;50.15;;;31.65;;
51732;SDS011;39139;53.144;6.244;2024-01-11T12:20:42;47.15;;;29.98;;
51732;SDS011;39139;53.144;6.244;2024-01-11T12:23:07;46.38;;;27.98;;
51732;SDS011;39139;53.144;6.244;2024-01-11T12:25:33;49.60;;;27.20;;
51732;SDS011;39139;53.144;6.244;2024-01-11T12:28:00;42.63;;;26.50;;
51732;SDS011;39139;53.144;6.244;2024-01-11T12:30:25;48.17;;;28.35;;
51732;SDS011;39139;53.144;6.244;2024-01-11T12:32:52;40.88;;;25.95;;
51732;SDS011;39139;53.144;6.244;2024-01-11T12:35:18;49.75;;;27.23;;
51732;SDS011;39139;53.144;6.244;2024-01-11T12:37:54;46.50;;;26.80;;
51732;SDS011;39139;53.144;6.244;2024-01-11T12:40:21;43.42;;;26.90;;
51732;SDS011;39139;53.144;6.244;2024-01-11T12:42:47;47.15;;;27.75;;
51732;SDS011;39139;53.144;6.244;2024-01-11T12:45:16;43.92;;;25.10;;
51732;SDS011;39139;53.144;6.244;2024-01-11T12:47:42;41.65;;;25.73;;
51732;SDS011;39139;53.144;6.244;2024-01-11T12:50:09;43.47;;;25.92;;
51732;SDS011;39139;53.144;6.244;2024-01-11T12:52:37;41.80;;;24.63;;
51732;SDS011;39139;53.144;6.244;2024-01-11T12:55:28;47.40;;;25.35;;
51732;SDS011;39139;53.144;6.244;2024-01-11T12:58:02;36.58;;;21.88;;
51732;SDS011;39139;53.144;6.244;2024-01-11T13:00:35;43.42;;;25.20;;
51732;SDS011;39139;53.144;6.244;2024-01-11T13:03:04;40.20;;;23.88;;
51732;SDS011;39139;53.144;6.244;2024-01-11T13:05:30;38.75;;;23.23;;
51732;SDS011;39139;53.144;6.244;2024-01-11T13:08:07;43.35;;;23.02;;
51732;SDS011;39139;53.144;6.244;2024-01-11T13:10:34;37.00;;;23.35;;
51732;SDS011;39139;53.144;6.244;2024-01-11T13:13:01;40.13;;;22.52;;
51732;SDS011;39139;53.144;6.244;2024-01-11T13:15:27;39.78;;;23.60;;
51732;SDS011;39139;53.144;6.244;2024-01-11T13:17:56;41.97;;;24.80;;
51732;SDS011;39139;53.144;6.244;2024-01-11T13:20:23;42.65;;;24.33;;
51732;SDS011;39139;53.144;6.244;2024-01-11T13:22:49;40.95;;;25.05;;
51732;SDS011;39139;53.144;6.244;2024-01-11T13:25:36;44.20;;;25.35;;
51732;SDS011;39139;53.144;6.244;2024-01-11T13:28:01;39.38;;;25.00;;
51732;SDS011;39139;53.144;6.244;2024-01-11T13:30:27;47.50;;;27.40;;
51732;SDS011;39139;53.144;6.244;2024-01-11T13:32:52;44.70;;;27.83;;
51732;SDS011;39139;53.144;6.244;2024-01-11T13:35:18;49.45;;;30.33;;
51732;SDS011;39139;53.144;6.244;2024-01-11T13:37:45;43.63;;;28.45;;
51732;SDS011;39139;53.144;6.244;2024-01-11T13:40:11;46.35;;;27.92;;
51732;SDS011;39139;53.144;6.244;2024-01-11T13:42:38;55.25;;;30.25;;
51732;SDS011;39139;53.144;6.244;2024-01-11T13:45:04;46.15;;;27.38;;
51732;SDS011;39139;53.144;6.244;2024-01-11T13:47:33;43.70;;;26.83;;
51732;SDS011;39139;53.144;6.244;2024-01-11T13:49:59;45.10;;;27.52;;
51732;SDS011;39139;53.144;6.244;2024-01-11T13:52:25;49.60;;;26.80;;
51732;SDS011;39139;53.144;6.244;2024-01-11T13:54:50;42.20;;;24.70;;
51732;SDS011;39139;53.144;6.244;2024-01-11T13:57:16;46.20;;;26.77;;
51732;SDS011;39139;53.144;6.244;2024-01-11T13:59:42;42.88;;;25.45;;
51732;SDS011;39139;53.144;6.244;2024-01-11T14:02:07;44.65;;;26.13;;
51732;SDS011;39139;53.144;6.244;2024-01-11T14:04:33;47.20;;;26.63;;
51732;SDS011;39139;53.144;6.244;2024-01-11T14:06:59;44.47;;;26.27;;
51732;SDS011;39139;53.144;6.244;2024-01-11T14:09:25;40.33;;;26.80;;
51732;SDS011;39139;53.144;6.244;2024-01-11T14:11:51;47.30;;;25.10;;
51732;SDS011;39139;53.144;6.244;2024-01-11T14:14:17;45.15;;;26.35;;
51732;SDS011;39139;53.144;6.244;2024-01-11T14:16:44;47.78;;;26.58;;
51732;SDS011;39139;53.144;6.244;2024-01-11T14:19:10;44.70;;;25.02;;
51732;SDS011;39139;53.144;6.244;2024-01-11T14:21:36;45.65;;;25.33;;
51732;SDS011;39139;53.144;6.244;2024-01-11T14:24:03;49.83;;;25.58;;